sensor_id;sensor_type;location;lat;lon;timestamp;P1;durP1;ratioP1;P2;durP2;ratioP2
77591;SDS011;66891;46.884;17.436;2023-04-15T00:02:14;3.85;;;0.40;;
77591;SDS011;66891;46.884;17.436;2023-04-15T00:04:42;4.18;;;0.60;;
77591;SDS011;66891;46.884;17.436;2023-04-15T00:07:10;3.90;;;0.40;;
77591;SDS011;66891;46.884;17.436;2023-04-15T00:09:37;4.35;;;0.50;;
77591;SDS011;66891;46.884;17.436;2023-04-15T00:12:04;3.83;;;0.50;;
77591;SDS011;66891;46.884;17.436;2023-04-15T00:14:32;3.78;;;0.50;;
77591;SDS011;66891;46.884;17.436;2023-04-15T00:17:02;3.40;;;0.40;;
77591;SDS011;66891;46.884;17.436;2023-04-15T00:19:30;2.70;;;0.30;;
77591;SDS011;66891;46.884;17.436;2023-04-15T00:21:58;3.08;;;0.47;;
77591;SDS011;66891;46.884;17.436;2023-04-15T00:24:26;4.27;;;0.40;;
77591;SDS011;66891;46.884;17.436;2023-04-15T00:26:54;5.60;;;0.57;;
77591;SDS011;66891;46.884;17.436;2023-04-15T00:29:21;5.50;;;0.60;;
77591;SDS011;66891;46.884;17.436;2023-04-15T00:31:49;4.97;;;0.50;;
77591;SDS011;66891;46.884;17.436;2023-04-15T00:34:18;4.25;;;0.60;;
77591;SDS011;66891;46.884;17.436;2023-04-15T00:36:45;4.37;;;0.50;;
77591;SDS011;66891;46.884;17.436;2023-04-15T00:39:13;4.00;;;0.60;;
77591;SDS011;66891;46.884;17.436;2023-04-15T00:41:42;4.78;;;0.70;;
77591;SDS011;66891;46.884;17.436;2023-04-15T00:44:09;4.97;;;0.70;;
77591;SDS011;66891;46.884;17.436;2023-04-15T00:46:37;5.35;;;1.10;;
77591;SDS011;66891;46.884;17.436;2023-04-15T00:49:06;5.00;;;0.80;;
77591;SDS011;66891;46.884;17.436;2023-04-15T00:51:35;5.15;;;1.02;;
77591;SDS011;66891;46.884;17.436;2023-04-15T00:54:02;4.72;;;0.73;;
77591;SDS011;66891;46.884;17.436;2023-04-15T00:56:30;5.35;;;1.10;;
77591;SDS011;66891;46.884;17.436;2023-04-15T00:59:01;7.00;;;1.10;;
77591;SDS011;66891;46.884;17.436;2023-04-15T01:01:29;6.30;;;1.30;;
77591;SDS011;66891;46.884;17.436;2023-04-15T01:03:58;5.65;;;1.25;;
77591;SDS011;66891;46.884;17.436;2023-04-15T01:06:26;4.97;;;1.17;;
77591;SDS011;66891;46.884;17.436;2023-04-15T01:08:56;5.22;;;0.85;;
77591;SDS011;66891;46.884;17.436;2023-04-15T01:11:24;5.25;;;1.10;;
77591;SDS011;66891;46.884;17.436;2023-04-15T01:13:52;4.83;;;1.03;;
77591;SDS011;66891;46.884;17.436;2023-04-15T01:16:21;5.40;;;1.10;;
77591;SDS011;66891;46.884;17.436;2023-04-15T01:18:49;5.07;;;1.10;;
77591;SDS011;66891;46.884;17.436;2023-04-15T01:21:16;7.00;;;1.45;;
77591;SDS011;66891;46.884;17.436;2023-04-15T01:23:45;6.15;;;1.40;;
77591;SDS011;66891;46.884;17.436;2023-04-15T01:26:15;5.90;;;1.40;;
77591;SDS011;66891;46.884;17.436;2023-04-15T01:28:43;6.05;;;1.33;;
77591;SDS011;66891;46.884;17.436;2023-04-15T01:31:11;5.95;;;1.50;;
77591;SDS011;66891;46.884;17.436;2023-04-15T01:33:40;6.40;;;1.45;;
77591;SDS011;66891;46.884;17.436;2023-04-15T01:36:09;5.40;;;1.40;;
77591;SDS011;66891;46.884;17.436;2023-04-15T01:38:36;6.23;;;1.40;;
77591;SDS011;66891;46.884;17.436;2023-04-15T01:41:04;5.60;;;1.17;;
77591;SDS011;66891;46.884;17.436;2023-04-15T01:43:35;5.63;;;1.60;;
77591;SDS011;66891;46.884;17.436;2023-04-15T01:46:05;5.50;;;1.35;;
77591;SDS011;66891;46.884;17.436;2023-04-15T01:48:33;6.28;;;1.60;;
77591;SDS011;66891;46.884;17.436;2023-04-15T01:51:00;6.03;;;1.50;;
77591;SDS011;66891;46.884;17.436;2023-04-15T01:53:27;6.72;;;1.65;;
77591;SDS011;66891;46.884;17.436;2023-04-15T01:55:55;6.20;;;1.60;;
77591;SDS011;66891;46.884;17.436;2023-04-15T01:58:23;5.95;;;1.42;;
77591;SDS011;66891;46.884;17.436;2023-04-15T02:00:52;6.43;;;1.75;;
77591;SDS011;66891;46.884;17.436;2023-04-15T02:03:20;7.27;;;1.60;;
77591;SDS011;66891;46.884;17.436;2023-04-15T02:05:47;7.28;;;1.98;;
77591;SDS011;66891;46.884;17.436;2023-04-15T02:08:15;7.03;;;1.58;;
77591;SDS011;66891;46.884;17.436;2023-04-15T02:10:42;6.50;;;2.00;;
77591;SDS011;66891;46.884;17.436;2023-04-15T02:13:10;7.30;;;2.00;;
77591;SDS011;66891;46.884;17.436;2023-04-15T02:15:37;6.77;;;2.20;;
77591;SDS011;66891;46.884;17.436;2023-04-15T02:18:06;7.43;;;2.03;;
77591;SDS011;66891;46.884;17.436;2023-04-15T02:20:33;6.45;;;2.28;;
77591;SDS011;66891;46.884;17.436;2023-04-15T02:23:02;6.97;;;2.30;;
77591;SDS011;66891;46.884;17.436;2023-04-15T02:25:33;6.38;;;2.10;;
77591;SDS011;66891;46.884;17.436;2023-04-15T02:28:00;6.63;;;2.20;;
77591;SDS011;66891;46.884;17.436;2023-04-15T02:30:27;6.75;;;2.40;;
77591;SDS011;66891;46.884;17.436;2023-04-15T02:32:55;7.68;;;2.58;;
77591;SDS011;66891;46.884;17.436;2023-04-15T02:35:24;7.50;;;2.42;;
77591;SDS011;66891;46.884;17.436;2023-04-15T02:37:51;7.13;;;2.33;;
77591;SDS011;66891;46.884;17.436;2023-04-15T02:40:19;7.50;;;2.40;;
77591;SDS011;66891;46.884;17.436;2023-04-15T02:42:46;7.55;;;2.72;;
77591;SDS011;66891;46.884;17.436;2023-04-15T02:45:14;7.43;;;2.53;;
77591;SDS011;66891;46.884;17.436;2023-04-15T02:47:41;6.78;;;1.95;;
77591;SDS011;66891;46.884;17.436;2023-04-15T02:50:09;7.03;;;2.20;;
77591;SDS011;66891;46.884;17.436;2023-04-15T02:52:40;7.33;;;2.37;;
77591;SDS011;66891;46.884;17.436;2023-04-15T02:55:08;7.10;;;2.03;;
77591;SDS011;66891;46.884;17.436;2023-04-15T02:57:35;8.23;;;2.30;;
77591;SDS011;66891;46.884;17.436;2023-04-15T03:00:05;6.53;;;2.22;;
77591;SDS011;66891;46.884;17.436;2023-04-15T03:02:35;7.88;;;2.00;;
77591;SDS011;66891;46.884;17.436;2023-04-15T03:05:04;6.37;;;2.10;;
77591;SDS011;66891;46.884;17.436;2023-04-15T03:07:32;6.97;;;2.30;;
77591;SDS011;66891;46.884;17.436;2023-04-15T03:10:01;7.20;;;2.28;;
77591;SDS011;66891;46.884;17.436;2023-04-15T03:12:29;6.22;;;2.10;;
77591;SDS011;66891;46.884;17.436;2023-04-15T03:14:56;6.45;;;1.88;;
77591;SDS011;66891;46.884;17.436;2023-04-15T03:17:24;6.13;;;1.57;;
77591;SDS011;66891;46.884;17.436;2023-04-15T03:19:51;8.30;;;2.10;;
77591;SDS011;66891;46.884;17.436;2023-04-15T03:22:19;8.32;;;2.40;;
77591;SDS011;66891;46.884;17.436;2023-04-15T03:24:46;7.40;;;2.60;;
77591;SDS011;66891;46.884;17.436;2023-04-15T03:27:15;7.35;;;2.30;;
77591;SDS011;66891;46.884;17.436;2023-04-15T03:29:42;7.30;;;2.50;;
77591;SDS011;66891;46.884;17.436;2023-04-15T03:32:10;7.07;;;2.33;;
77591;SDS011;66891;46.884;17.436;2023-04-15T03:34:57;6.70;;;1.90;;
77591;SDS011;66891;46.884;17.436;2023-04-15T03:37:24;7.05;;;2.40;;
77591;SDS011;66891;46.884;17.436;2023-04-15T03:39:52;11.70;;;4.25;;
77591;SDS011;66891;46.884;17.436;2023-04-15T03:42:20;7.97;;;2.57;;
77591;SDS011;66891;46.884;17.436;2023-04-15T03:44:48;7.60;;;2.88;;
77591;SDS011;66891;46.884;17.436;2023-04-15T03:47:15;7.07;;;2.33;;
77591;SDS011;66891;46.884;17.436;2023-04-15T03:49:42;8.52;;;2.45;;
77591;SDS011;66891;46.884;17.436;2023-04-15T03:52:10;7.55;;;2.55;;
77591;SDS011;66891;46.884;17.436;2023-04-15T03:54:38;6.83;;;2.43;;
77591;SDS011;66891;46.884;17.436;2023-04-15T03:57:05;7.32;;;2.63;;
77591;SDS011;66891;46.884;17.436;2023-04-15T03:59:34;7.65;;;2.00;;
77591;SDS011;66891;46.884;17.436;2023-04-15T04:02:01;6.20;;;1.88;;
77591;SDS011;66891;46.884;17.436;2023-04-15T04:04:29;6.43;;;1.63;;
77591;SDS011;66891;46.884;17.436;2023-04-15T04:06:56;6.20;;;1.63;;
77591;SDS011;66891;46.884;17.436;2023-04-15T04:09:24;7.07;;;2.20;;
77591;SDS011;66891;46.884;17.436;2023-04-15T04:11:51;6.80;;;1.90;;
77591;SDS011;66891;46.884;17.436;2023-04-15T04:14:18;7.03;;;1.80;;
77591;SDS011;66891;46.884;17.436;2023-04-15T04:16:47;7.45;;;2.42;;
77591;SDS011;66891;46.884;17.436;2023-04-15T04:19:14;7.33;;;2.10;;
77591;SDS011;66891;46.884;17.436;2023-04-15T04:21:45;6.70;;;2.15;;
77591;SDS011;66891;46.884;17.436;2023-04-15T04:24:12;7.63;;;2.17;;
77591;SDS011;66891;46.884;17.436;2023-04-15T04:26:40;6.18;;;2.00;;
77591;SDS011;66891;46.884;17.436;2023-04-15T04:29:07;7.80;;;2.25;;
77591;SDS011;66891;46.884;17.436;2023-04-15T04:31:34;6.60;;;2.07;;
77591;SDS011;66891;46.884;17.436;2023-04-15T04:34:04;6.93;;;2.00;;
77591;SDS011;66891;46.884;17.436;2023-04-15T04:36:31;6.30;;;1.83;;
77591;SDS011;66891;46.884;17.436;2023-04-15T04:38:59;7.15;;;1.58;;
77591;SDS011;66891;46.884;17.436;2023-04-15T04:41:27;7.03;;;1.80;;
77591;SDS011;66891;46.884;17.436;2023-04-15T04:43:54;7.13;;;1.73;;
77591;SDS011;66891;46.884;17.436;2023-04-15T04:46:22;8.07;;;2.10;;
77591;SDS011;66891;46.884;17.436;2023-04-15T04:48:50;6.35;;;1.73;;
77591;SDS011;66891;46.884;17.436;2023-04-15T04:51:18;7.53;;;2.17;;
77591;SDS011;66891;46.884;17.436;2023-04-15T04:53:46;6.85;;;2.00;;
77591;SDS011;66891;46.884;17.436;2023-04-15T04:56:13;6.60;;;1.50;;
77591;SDS011;66891;46.884;17.436;2023-04-15T04:58:41;6.40;;;1.90;;
77591;SDS011;66891;46.884;17.436;2023-04-15T05:01:08;5.78;;;1.50;;
77591;SDS011;66891;46.884;17.436;2023-04-15T05:03:35;7.22;;;2.00;;
77591;SDS011;66891;46.884;17.436;2023-04-15T05:06:04;6.30;;;1.58;;
77591;SDS011;66891;46.884;17.436;2023-04-15T05:08:35;7.60;;;1.73;;
77591;SDS011;66891;46.884;17.436;2023-04-15T05:11:06;6.63;;;2.22;;
77591;SDS011;66891;46.884;17.436;2023-04-15T05:13:33;7.72;;;2.05;;
77591;SDS011;66891;46.884;17.436;2023-04-15T05:16:00;7.78;;;2.50;;
77591;SDS011;66891;46.884;17.436;2023-04-15T05:18:27;9.40;;;2.78;;
77591;SDS011;66891;46.884;17.436;2023-04-15T05:20:55;7.10;;;2.03;;
77591;SDS011;66891;46.884;17.436;2023-04-15T05:23:23;8.82;;;2.53;;
77591;SDS011;66891;46.884;17.436;2023-04-15T05:25:52;8.63;;;2.60;;
77591;SDS011;66891;46.884;17.436;2023-04-15T05:28:19;7.85;;;2.50;;
77591;SDS011;66891;46.884;17.436;2023-04-15T05:30:47;6.00;;;2.00;;
77591;SDS011;66891;46.884;17.436;2023-04-15T05:33:15;6.83;;;1.73;;
77591;SDS011;66891;46.884;17.436;2023-04-15T05:35:42;7.65;;;2.03;;
77591;SDS011;66891;46.884;17.436;2023-04-15T05:38:09;6.53;;;1.90;;
77591;SDS011;66891;46.884;17.436;2023-04-15T05:40:37;6.85;;;2.03;;
77591;SDS011;66891;46.884;17.436;2023-04-15T05:43:05;7.70;;;2.63;;
77591;SDS011;66891;46.884;17.436;2023-04-15T05:45:33;8.10;;;2.60;;
77591;SDS011;66891;46.884;17.436;2023-04-15T05:48:00;9.88;;;3.75;;
77591;SDS011;66891;46.884;17.436;2023-04-15T05:50:27;16.00;;;6.57;;
77591;SDS011;66891;46.884;17.436;2023-04-15T05:52:55;12.80;;;4.60;;
77591;SDS011;66891;46.884;17.436;2023-04-15T05:55:22;14.43;;;6.03;;
77591;SDS011;66891;46.884;17.436;2023-04-15T05:57:50;9.10;;;2.50;;
77591;SDS011;66891;46.884;17.436;2023-04-15T06:00:19;7.38;;;2.22;;
77591;SDS011;66891;46.884;17.436;2023-04-15T06:02:47;7.20;;;2.15;;
77591;SDS011;66891;46.884;17.436;2023-04-15T06:05:14;8.15;;;2.60;;
77591;SDS011;66891;46.884;17.436;2023-04-15T06:07:42;6.80;;;2.22;;
77591;SDS011;66891;46.884;17.436;2023-04-15T06:10:12;8.90;;;3.03;;
77591;SDS011;66891;46.884;17.436;2023-04-15T06:12:40;9.18;;;3.13;;
77591;SDS011;66891;46.884;17.436;2023-04-15T06:15:07;8.05;;;2.60;;
77591;SDS011;66891;46.884;17.436;2023-04-15T06:17:37;7.00;;;2.28;;
77591;SDS011;66891;46.884;17.436;2023-04-15T06:20:05;7.95;;;3.00;;
77591;SDS011;66891;46.884;17.436;2023-04-15T06:22:35;7.03;;;2.43;;
77591;SDS011;66891;46.884;17.436;2023-04-15T06:25:03;8.02;;;2.55;;
77591;SDS011;66891;46.884;17.436;2023-04-15T06:27:31;11.43;;;4.93;;
77591;SDS011;66891;46.884;17.436;2023-04-15T06:29:59;10.55;;;4.22;;
77591;SDS011;66891;46.884;17.436;2023-04-15T06:32:26;12.13;;;5.72;;
77591;SDS011;66891;46.884;17.436;2023-04-15T06:34:55;9.60;;;4.07;;
77591;SDS011;66891;46.884;17.436;2023-04-15T06:37:22;9.93;;;4.40;;
77591;SDS011;66891;46.884;17.436;2023-04-15T06:39:50;8.25;;;3.20;;
77591;SDS011;66891;46.884;17.436;2023-04-15T06:42:17;7.38;;;2.22;;
77591;SDS011;66891;46.884;17.436;2023-04-15T06:44:44;6.05;;;1.60;;
77591;SDS011;66891;46.884;17.436;2023-04-15T06:47:12;7.90;;;1.90;;
77591;SDS011;66891;46.884;17.436;2023-04-15T06:49:40;7.07;;;1.80;;
77591;SDS011;66891;46.884;17.436;2023-04-15T06:52:10;6.50;;;1.90;;
77591;SDS011;66891;46.884;17.436;2023-04-15T06:54:38;7.45;;;2.45;;
77591;SDS011;66891;46.884;17.436;2023-04-15T06:57:05;6.18;;;1.90;;
77591;SDS011;66891;46.884;17.436;2023-04-15T06:59:33;5.57;;;1.13;;
77591;SDS011;66891;46.884;17.436;2023-04-15T07:02:00;6.25;;;1.45;;
77591;SDS011;66891;46.884;17.436;2023-04-15T07:04:28;6.13;;;1.50;;
77591;SDS011;66891;46.884;17.436;2023-04-15T07:06:55;6.07;;;1.60;;
77591;SDS011;66891;46.884;17.436;2023-04-15T07:09:24;5.88;;;1.80;;
77591;SDS011;66891;46.884;17.436;2023-04-15T07:11:52;5.87;;;1.50;;
77591;SDS011;66891;46.884;17.436;2023-04-15T07:14:19;6.90;;;1.70;;
77591;SDS011;66891;46.884;17.436;2023-04-15T07:16:47;6.10;;;1.88;;
77591;SDS011;66891;46.884;17.436;2023-04-15T07:19:14;6.47;;;1.90;;
77591;SDS011;66891;46.884;17.436;2023-04-15T07:21:42;7.60;;;2.30;;
77591;SDS011;66891;46.884;17.436;2023-04-15T07:24:09;10.00;;;3.50;;
77591;SDS011;66891;46.884;17.436;2023-04-15T07:26:38;10.35;;;3.50;;
77591;SDS011;66891;46.884;17.436;2023-04-15T07:29:06;6.75;;;2.03;;
77591;SDS011;66891;46.884;17.436;2023-04-15T07:31:33;6.75;;;1.63;;
77591;SDS011;66891;46.884;17.436;2023-04-15T07:34:02;7.15;;;2.45;;
77591;SDS011;66891;46.884;17.436;2023-04-15T07:36:30;8.07;;;1.97;;
77591;SDS011;66891;46.884;17.436;2023-04-15T07:38:58;7.22;;;2.22;;
77591;SDS011;66891;46.884;17.436;2023-04-15T07:41:28;8.07;;;2.83;;
77591;SDS011;66891;46.884;17.436;2023-04-15T07:43:57;6.32;;;1.70;;
77591;SDS011;66891;46.884;17.436;2023-04-15T07:46:24;7.68;;;2.67;;
77591;SDS011;66891;46.884;17.436;2023-04-15T07:48:53;7.03;;;2.20;;
77591;SDS011;66891;46.884;17.436;2023-04-15T07:51:20;7.18;;;2.00;;
77591;SDS011;66891;46.884;17.436;2023-04-15T07:53:48;7.20;;;2.00;;
77591;SDS011;66891;46.884;17.436;2023-04-15T07:56:16;7.35;;;2.13;;
77591;SDS011;66891;46.884;17.436;2023-04-15T07:58:43;7.05;;;1.90;;
77591;SDS011;66891;46.884;17.436;2023-04-15T08:01:12;6.20;;;1.70;;
77591;SDS011;66891;46.884;17.436;2023-04-15T08:03:40;8.15;;;1.80;;
77591;SDS011;66891;46.884;17.436;2023-04-15T08:06:07;8.50;;;2.55;;
77591;SDS011;66891;46.884;17.436;2023-04-15T08:08:35;8.20;;;2.35;;
77591;SDS011;66891;46.884;17.436;2023-04-15T08:11:03;5.78;;;1.33;;
77591;SDS011;66891;46.884;17.436;2023-04-15T08:13:31;6.03;;;1.30;;
77591;SDS011;66891;46.884;17.436;2023-04-15T08:16:18;5.65;;;1.15;;
77591;SDS011;66891;46.884;17.436;2023-04-15T08:18:47;6.55;;;1.30;;
77591;SDS011;66891;46.884;17.436;2023-04-15T08:21:15;5.15;;;1.00;;
77591;SDS011;66891;46.884;17.436;2023-04-15T08:23:44;6.22;;;1.40;;
77591;SDS011;66891;46.884;17.436;2023-04-15T08:26:13;5.67;;;1.43;;
77591;SDS011;66891;46.884;17.436;2023-04-15T08:28:41;6.10;;;1.40;;
77591;SDS011;66891;46.884;17.436;2023-04-15T08:31:11;6.82;;;1.95;;
77591;SDS011;66891;46.884;17.436;2023-04-15T08:33:40;8.13;;;2.40;;
77591;SDS011;66891;46.884;17.436;2023-04-15T08:36:07;6.80;;;1.30;;
77591;SDS011;66891;46.884;17.436;2023-04-15T08:38:35;5.63;;;1.43;;
77591;SDS011;66891;46.884;17.436;2023-04-15T08:41:03;7.75;;;2.15;;
77591;SDS011;66891;46.884;17.436;2023-04-15T08:43:38;7.35;;;2.17;;
77591;SDS011;66891;46.884;17.436;2023-04-15T08:46:13;5.50;;;1.40;;
77591;SDS011;66891;46.884;17.436;2023-04-15T08:48:43;5.57;;;1.10;;
77591;SDS011;66891;46.884;17.436;2023-04-15T08:51:13;6.17;;;1.20;;
77591;SDS011;66891;46.884;17.436;2023-04-15T08:53:42;5.03;;;0.90;;
77591;SDS011;66891;46.884;17.436;2023-04-15T08:56:10;5.85;;;1.20;;
77591;SDS011;66891;46.884;17.436;2023-04-15T08:58:39;5.13;;;1.00;;
77591;SDS011;66891;46.884;17.436;2023-04-15T09:01:07;4.70;;;1.00;;
77591;SDS011;66891;46.884;17.436;2023-04-15T09:03:35;6.70;;;1.60;;
77591;SDS011;66891;46.884;17.436;2023-04-15T09:06:05;5.30;;;1.20;;
77591;SDS011;66891;46.884;17.436;2023-04-15T09:08:32;6.50;;;1.63;;
77591;SDS011;66891;46.884;17.436;2023-04-15T09:11:03;8.68;;;2.03;;
77591;SDS011;66891;46.884;17.436;2023-04-15T09:13:30;12.27;;;3.55;;
77591;SDS011;66891;46.884;17.436;2023-04-15T09:15:59;18.13;;;4.93;;
77591;SDS011;66891;46.884;17.436;2023-04-15T09:18:30;18.95;;;5.35;;
77591;SDS011;66891;46.884;17.436;2023-04-15T09:21:03;7.72;;;2.13;;
77591;SDS011;66891;46.884;17.436;2023-04-15T09:23:34;10.60;;;3.95;;
77591;SDS011;66891;46.884;17.436;2023-04-15T09:26:02;8.25;;;2.40;;
77591;SDS011;66891;46.884;17.436;2023-04-15T09:28:31;6.87;;;1.43;;
77591;SDS011;66891;46.884;17.436;2023-04-15T09:30:59;8.73;;;3.10;;
77591;SDS011;66891;46.884;17.436;2023-04-15T09:33:28;7.03;;;2.50;;
77591;SDS011;66891;46.884;17.436;2023-04-15T09:35:57;6.28;;;1.58;;
77591;SDS011;66891;46.884;17.436;2023-04-15T09:38:27;6.07;;;1.90;;
77591;SDS011;66891;46.884;17.436;2023-04-15T09:40:54;7.57;;;2.27;;
77591;SDS011;66891;46.884;17.436;2023-04-15T09:43:22;7.57;;;2.03;;
77591;SDS011;66891;46.884;17.436;2023-04-15T09:46:02;8.00;;;2.90;;
77591;SDS011;66891;46.884;17.436;2023-04-15T09:48:29;5.50;;;1.40;;
77591;SDS011;66891;46.884;17.436;2023-04-15T09:50:57;6.13;;;1.63;;
77591;SDS011;66891;46.884;17.436;2023-04-15T09:53:27;6.63;;;1.63;;
77591;SDS011;66891;46.884;17.436;2023-04-15T09:55:58;7.35;;;2.38;;
77591;SDS011;66891;46.884;17.436;2023-04-15T09:58:29;7.30;;;2.00;;
77591;SDS011;66891;46.884;17.436;2023-04-15T10:00:57;5.97;;;1.52;;
77591;SDS011;66891;46.884;17.436;2023-04-15T10:03:26;6.32;;;1.58;;
77591;SDS011;66891;46.884;17.436;2023-04-15T10:05:56;8.37;;;1.97;;
77591;SDS011;66891;46.884;17.436;2023-04-15T10:08:25;5.40;;;1.38;;
77591;SDS011;66891;46.884;17.436;2023-04-15T10:10:55;5.88;;;1.60;;
77591;SDS011;66891;46.884;17.436;2023-04-15T10:13:24;6.50;;;1.58;;
77591;SDS011;66891;46.884;17.436;2023-04-15T10:15:55;6.70;;;1.70;;
77591;SDS011;66891;46.884;17.436;2023-04-15T10:18:24;5.87;;;1.47;;
77591;SDS011;66891;46.884;17.436;2023-04-15T10:20:53;6.72;;;2.22;;
77591;SDS011;66891;46.884;17.436;2023-04-15T10:23:21;6.18;;;1.88;;
77591;SDS011;66891;46.884;17.436;2023-04-15T10:25:50;6.53;;;1.30;;
77591;SDS011;66891;46.884;17.436;2023-04-15T10:28:21;6.18;;;1.58;;
77591;SDS011;66891;46.884;17.436;2023-04-15T10:30:49;6.20;;;1.53;;
77591;SDS011;66891;46.884;17.436;2023-04-15T10:33:19;7.03;;;1.92;;
77591;SDS011;66891;46.884;17.436;2023-04-15T10:35:48;6.55;;;2.20;;
77591;SDS011;66891;46.884;17.436;2023-04-15T10:38:33;6.35;;;1.63;;
77591;SDS011;66891;46.884;17.436;2023-04-15T10:41:11;6.85;;;2.17;;
77591;SDS011;66891;46.884;17.436;2023-04-15T10:43:50;6.83;;;1.87;;
77591;SDS011;66891;46.884;17.436;2023-04-15T10:46:22;8.05;;;2.47;;
77591;SDS011;66891;46.884;17.436;2023-04-15T10:49:05;6.15;;;1.80;;
77591;SDS011;66891;46.884;17.436;2023-04-15T10:51:33;6.38;;;1.92;;
77591;SDS011;66891;46.884;17.436;2023-04-15T10:54:08;6.28;;;1.67;;
77591;SDS011;66891;46.884;17.436;2023-04-15T10:56:40;7.27;;;1.80;;
77591;SDS011;66891;46.884;17.436;2023-04-15T10:59:09;7.78;;;2.45;;
77591;SDS011;66891;46.884;17.436;2023-04-15T11:01:49;7.68;;;2.20;;
77591;SDS011;66891;46.884;17.436;2023-04-15T11:07:46;7.25;;;2.10;;
77591;SDS011;66891;46.884;17.436;2023-04-15T11:13:18;7.20;;;2.50;;
77591;SDS011;66891;46.884;17.436;2023-04-15T11:16:03;7.20;;;2.58;;
77591;SDS011;66891;46.884;17.436;2023-04-15T11:18:32;8.18;;;3.05;;
77591;SDS011;66891;46.884;17.436;2023-04-15T11:21:03;7.22;;;2.05;;
77591;SDS011;66891;46.884;17.436;2023-04-15T11:23:36;6.53;;;2.40;;
77591;SDS011;66891;46.884;17.436;2023-04-15T11:26:07;7.43;;;2.40;;
77591;SDS011;66891;46.884;17.436;2023-04-15T11:28:38;5.95;;;1.65;;
77591;SDS011;66891;46.884;17.436;2023-04-15T11:31:09;6.60;;;1.80;;
77591;SDS011;66891;46.884;17.436;2023-04-15T11:33:38;5.85;;;1.30;;
77591;SDS011;66891;46.884;17.436;2023-04-15T11:36:12;6.37;;;2.00;;
77591;SDS011;66891;46.884;17.436;2023-04-15T11:38:43;6.88;;;2.30;;
77591;SDS011;66891;46.884;17.436;2023-04-15T11:41:13;6.43;;;1.98;;
77591;SDS011;66891;46.884;17.436;2023-04-15T11:43:40;6.43;;;1.60;;
77591;SDS011;66891;46.884;17.436;2023-04-15T11:46:09;7.82;;;2.00;;
77591;SDS011;66891;46.884;17.436;2023-04-15T11:48:40;6.57;;;2.10;;
77591;SDS011;66891;46.884;17.436;2023-04-15T11:51:10;8.95;;;3.13;;
77591;SDS011;66891;46.884;17.436;2023-04-15T11:53:39;8.60;;;3.05;;
77591;SDS011;66891;46.884;17.436;2023-04-15T11:56:07;9.60;;;2.80;;
77591;SDS011;66891;46.884;17.436;2023-04-15T11:58:36;8.57;;;2.70;;
77591;SDS011;66891;46.884;17.436;2023-04-15T12:01:05;7.10;;;2.13;;
77591;SDS011;66891;46.884;17.436;2023-04-15T12:03:37;6.57;;;1.40;;
77591;SDS011;66891;46.884;17.436;2023-04-15T12:06:08;5.93;;;1.20;;
77591;SDS011;66891;46.884;17.436;2023-04-15T12:11:37;9.02;;;3.20;;
77591;SDS011;66891;46.884;17.436;2023-04-15T12:14:07;8.23;;;2.70;;
77591;SDS011;66891;46.884;17.436;2023-04-15T12:16:39;5.43;;;1.10;;
77591;SDS011;66891;46.884;17.436;2023-04-15T12:19:17;5.55;;;1.30;;
77591;SDS011;66891;46.884;17.436;2023-04-15T12:21:48;7.30;;;1.30;;
77591;SDS011;66891;46.884;17.436;2023-04-15T12:24:18;13.00;;;3.55;;
77591;SDS011;66891;46.884;17.436;2023-04-15T12:26:49;8.67;;;1.57;;
77591;SDS011;66891;46.884;17.436;2023-04-15T12:29:17;5.68;;;1.02;;
77591;SDS011;66891;46.884;17.436;2023-04-15T12:31:46;7.00;;;1.85;;
77591;SDS011;66891;46.884;17.436;2023-04-15T12:34:24;4.65;;;0.90;;
77591;SDS011;66891;46.884;17.436;2023-04-15T12:36:53;6.40;;;1.40;;
77591;SDS011;66891;46.884;17.436;2023-04-15T12:39:21;5.37;;;0.70;;
77591;SDS011;66891;46.884;17.436;2023-04-15T12:41:49;3.20;;;0.60;;
77591;SDS011;66891;46.884;17.436;2023-04-15T12:44:17;3.60;;;0.70;;
77591;SDS011;66891;46.884;17.436;2023-04-15T12:46:44;3.00;;;0.50;;
77591;SDS011;66891;46.884;17.436;2023-04-15T12:49:12;7.95;;;1.20;;
77591;SDS011;66891;46.884;17.436;2023-04-15T12:51:47;3.37;;;0.60;;
77591;SDS011;66891;46.884;17.436;2023-04-15T12:54:15;3.65;;;0.57;;
77591;SDS011;66891;46.884;17.436;2023-04-15T12:56:44;4.57;;;0.80;;
77591;SDS011;66891;46.884;17.436;2023-04-15T12:59:12;4.15;;;0.60;;
77591;SDS011;66891;46.884;17.436;2023-04-15T13:01:39;3.05;;;0.60;;
77591;SDS011;66891;46.884;17.436;2023-04-15T13:04:07;2.93;;;0.50;;
77591;SDS011;66891;46.884;17.436;2023-04-15T13:06:35;5.65;;;1.10;;
77591;SDS011;66891;46.884;17.436;2023-04-15T13:09:04;3.50;;;0.68;;
77591;SDS011;66891;46.884;17.436;2023-04-15T13:11:32;3.92;;;0.50;;
77591;SDS011;66891;46.884;17.436;2023-04-15T13:14:00;4.15;;;0.73;;
77591;SDS011;66891;46.884;17.436;2023-04-15T13:16:28;5.23;;;1.10;;
77591;SDS011;66891;46.884;17.436;2023-04-15T13:18:56;4.05;;;0.70;;
77591;SDS011;66891;46.884;17.436;2023-04-15T13:21:23;4.25;;;0.70;;
77591;SDS011;66891;46.884;17.436;2023-04-15T13:23:51;3.55;;;0.60;;
77591;SDS011;66891;46.884;17.436;2023-04-15T13:26:19;7.97;;;1.90;;
77591;SDS011;66891;46.884;17.436;2023-04-15T13:28:47;6.10;;;1.20;;
77591;SDS011;66891;46.884;17.436;2023-04-15T13:31:14;5.38;;;1.20;;
77591;SDS011;66891;46.884;17.436;2023-04-15T13:33:42;5.35;;;1.10;;
77591;SDS011;66891;46.884;17.436;2023-04-15T13:36:09;4.90;;;1.00;;
77591;SDS011;66891;46.884;17.436;2023-04-15T13:38:36;5.13;;;1.20;;
77591;SDS011;66891;46.884;17.436;2023-04-15T13:41:04;6.43;;;1.33;;
77591;SDS011;66891;46.884;17.436;2023-04-15T13:43:33;5.28;;;1.10;;
77591;SDS011;66891;46.884;17.436;2023-04-15T13:46:00;13.48;;;5.28;;
77591;SDS011;66891;46.884;17.436;2023-04-15T13:48:28;6.47;;;1.05;;
77591;SDS011;66891;46.884;17.436;2023-04-15T13:50:55;5.05;;;1.08;;
77591;SDS011;66891;46.884;17.436;2023-04-15T13:53:23;7.30;;;1.70;;
77591;SDS011;66891;46.884;17.436;2023-04-15T13:56:04;5.85;;;1.10;;
77591;SDS011;66891;46.884;17.436;2023-04-15T13:58:33;4.18;;;0.50;;
77591;SDS011;66891;46.884;17.436;2023-04-15T14:01:01;6.25;;;0.80;;
77591;SDS011;66891;46.884;17.436;2023-04-15T14:03:31;4.47;;;0.80;;
77591;SDS011;66891;46.884;17.436;2023-04-15T14:06:00;6.40;;;0.60;;
77591;SDS011;66891;46.884;17.436;2023-04-15T14:08:28;4.70;;;1.00;;
77591;SDS011;66891;46.884;17.436;2023-04-15T14:10:56;4.50;;;0.88;;
77591;SDS011;66891;46.884;17.436;2023-04-15T14:13:23;4.93;;;0.75;;
77591;SDS011;66891;46.884;17.436;2023-04-15T14:15:52;6.80;;;1.67;;
77591;SDS011;66891;46.884;17.436;2023-04-15T14:18:19;5.57;;;1.40;;
77591;SDS011;66891;46.884;17.436;2023-04-15T14:20:46;5.47;;;1.33;;
77591;SDS011;66891;46.884;17.436;2023-04-15T14:23:14;4.88;;;0.85;;
77591;SDS011;66891;46.884;17.436;2023-04-15T14:25:41;4.57;;;0.70;;
77591;SDS011;66891;46.884;17.436;2023-04-15T14:28:11;6.50;;;1.70;;
77591;SDS011;66891;46.884;17.436;2023-04-15T14:30:39;6.47;;;1.90;;
77591;SDS011;66891;46.884;17.436;2023-04-15T14:33:08;4.78;;;0.82;;
77591;SDS011;66891;46.884;17.436;2023-04-15T14:35:35;4.43;;;0.93;;
77591;SDS011;66891;46.884;17.436;2023-04-15T14:38:03;4.97;;;0.80;;
77591;SDS011;66891;46.884;17.436;2023-04-15T14:40:33;4.97;;;0.73;;
77591;SDS011;66891;46.884;17.436;2023-04-15T14:43:01;4.90;;;0.63;;
77591;SDS011;66891;46.884;17.436;2023-04-15T14:45:28;4.75;;;0.60;;
77591;SDS011;66891;46.884;17.436;2023-04-15T14:47:56;8.18;;;2.55;;
77591;SDS011;66891;46.884;17.436;2023-04-15T14:50:24;6.28;;;1.80;;
77591;SDS011;66891;46.884;17.436;2023-04-15T14:52:52;9.20;;;2.67;;